Time;durP1;ratioP1;P1;durP2;ratioP2;P2;SDS_P1;SDS_P2;PMS_P1;PMS_P2;Temp;Humidity;BMP_temperature;BMP_pressure;BME280_temperature;BME280_humidity;BME280_pressure;Samples;Min_cycle;Max_cycle;Signal;HPM_P1;HPM_P2
2023/01/30 00:00:39;;;;;;;11.50;7.83;;;;;;;4.04;100.00;102041.25;2097242;28;20196;-59
2023/01/30 00:01:41;;;;;;;12.47;8.17;;;;;;;4.09;100.00;102046.47;2096417;28;20212;-60
2023/01/30 00:02:42;;;;;;;11.10;7.55;;;;;;;4.14;100.00;102042.66;2097037;28;20274;-60
2023/01/30 00:03:42;;;;;;;10.63;7.37;;;;;;;4.12;100.00;102039.47;2097164;28;20247;-60
2023/01/30 00:04:43;;;;;;;11.70;7.70;;;;;;;4.12;100.00;102037.53;2096254;28;20182;-60
2023/01/30 00:05:43;;;;;;;12.87;8.67;;;;;;;4.24;100.00;102045.69;2088966;28;20217;-59
2023/01/30 00:06:43;;;;;;;11.67;8.30;;;;;;;4.32;100.00;102046.63;2097155;28;20703;-60
2023/01/30 00:07:45;;;;;;;12.67;8.10;;;;;;;4.28;100.00;102048.50;2097130;28;20724;-60
2023/01/30 00:08:46;;;;;;;10.52;7.63;;;;;;;4.33;100.00;102046.28;2091221;28;20615;-60
2023/01/30 00:09:46;;;;;;;10.40;7.90;;;;;;;4.29;100.00;102034.44;2088196;28;20238;-60
2023/01/30 00:10:47;;;;;;;12.17;8.27;;;;;;;4.33;100.00;102046.28;2092980;28;20190;-59
2023/01/30 00:11:47;;;;;;;11.60;7.90;;;;;;;4.21;100.00;102023.63;2094497;28;20188;-59
2023/01/30 00:12:48;;;;;;;14.90;8.57;;;;;;;4.21;100.00;102024.41;2090539;28;20733;-60
2023/01/30 00:13:50;;;;;;;10.97;7.77;;;;;;;4.27;100.00;102019.47;2098566;28;20263;-60
2023/01/30 00:14:50;;;;;;;10.98;7.70;;;;;;;4.51;100.00;102030.25;2089221;28;20257;-60
2023/01/30 00:15:51;;;;;;;12.57;9.10;;;;;;;4.00;100.00;101954.56;2088576;28;20195;-59
2023/01/30 00:16:51;;;;;;;11.57;7.93;;;;;;;4.47;100.00;102041.13;2095426;28;20250;-60
2023/01/30 00:17:51;;;;;;;11.00;7.73;;;;;;;4.45;100.00;102026.16;2091913;28;20197;-60
2023/01/30 00:18:52;;;;;;;10.90;8.00;;;;;;;4.40;100.00;102009.97;2093038;28;20498;-60
2023/01/30 00:19:52;;;;;;;10.80;7.87;;;;;;;4.53;100.00;102022.44;2096541;28;20202;-59
2023/01/30 00:20:57;;;;;;;11.13;8.13;;;;;;;4.61;100.00;102040.66;2088431;28;20240;-59
2023/01/30 00:21:58;;;;;;;12.43;7.22;;;;;;;4.61;100.00;102035.94;2087453;28;20684;-59
2023/01/30 00:22:58;;;;;;;13.03;8.43;;;;;;;4.48;100.00;102017.22;2088851;28;20585;-60
2023/01/30 00:23:59;;;;;;;12.00;8.03;;;;;;;4.65;100.00;102047.00;2088931;28;20178;-59
2023/01/30 00:25:00;;;;;;;10.70;7.85;;;;;;;4.63;100.00;102035.59;2089001;28;20225;-60
2023/01/30 00:26:01;;;;;;;11.00;7.93;;;;;;;4.63;100.00;102043.84;2088446;28;20179;-60
2023/01/30 00:27:01;;;;;;;10.43;7.77;;;;;;;4.55;100.00;102040.13;2088968;28;20263;-60
2023/01/30 00:28:02;;;;;;;12.37;7.80;;;;;;;4.61;100.00;102037.91;2088896;28;20439;-60
2023/01/30 00:29:02;;;;;;;10.40;7.60;;;;;;;4.62;100.00;102034.03;2088969;28;20565;-60
2023/01/30 00:30:04;;;;;;;11.30;7.77;;;;;;;4.46;100.00;102014.03;2088085;28;20283;-60
2023/01/30 00:31:06;;;;;;;13.55;8.68;;;;;;;4.61;100.00;102038.69;2088921;28;20676;-60
2023/01/30 00:32:06;;;;;;;12.80;7.93;;;;;;;4.57;100.00;102024.09;2089071;28;20205;-59
2023/01/30 00:33:08;;;;;;;10.83;7.97;;;;;;;4.60;100.00;102036.31;2089140;28;20745;-60
2023/01/30 00:34:08;;;;;;;11.02;7.95;;;;;;;4.40;100.00;102007.22;2088853;28;20185;-60
2023/01/30 00:35:09;;;;;;;10.43;7.90;;;;;;;4.11;100.00;101964.59;2089111;28;20283;-60
2023/01/30 00:36:09;;;;;;;13.20;8.17;;;;;;;4.50;100.00;102031.38;2088340;28;20662;-59
2023/01/30 00:37:10;;;;;;;11.77;8.13;;;;;;;4.54;100.00;102024.81;2092069;28;20668;-60
2023/01/30 00:38:11;;;;;;;12.13;7.80;;;;;;;4.56;100.00;102028.00;2096910;28;20181;-60
2023/01/30 00:39:11;;;;;;;10.87;7.73;;;;;;;4.60;100.00;102028.88;2097227;28;20639;-60
2023/01/30 00:40:11;;;;;;;11.17;7.90;;;;;;;4.68;100.00;102021.59;2096767;28;20632;-60
2023/01/30 00:41:14;;;;;;;11.03;7.77;;;;;;;4.71;100.00;102026.34;2097296;28;20254;-60
2023/01/30 00:47:37;;;;;;;11.75;7.97;;;;;;;4.66;100.00;102032.16;2092744;28;20189;-60
2023/01/30 00:48:38;;;;;;;11.43;7.20;;;;;;;4.69;100.00;102036.91;2094482;28;20191;-60
2023/01/30 00:49:38;;;;;;;10.20;7.13;;;;;;;4.57;100.00;102028.81;2088306;28;20262;-59
2023/01/30 00:50:41;;;;;;;12.50;7.37;;;;;;;4.58;100.00;102028.44;2089275;28;20178;-60
2023/01/30 00:51:42;;;;;;;11.05;7.65;;;;;;;4.38;100.00;102015.84;2097110;28;20186;-60
2023/01/30 00:52:42;;;;;;;11.87;8.47;;;;;;;4.36;100.00;102009.88;2088201;28;20194;-60
2023/01/30 00:53:43;;;;;;;12.00;8.07;;;;;;;4.56;100.00;102019.75;2088114;28;20646;-60
2023/01/30 00:54:43;;;;;;;11.73;7.70;;;;;;;4.54;100.00;102029.50;2097179;28;20245;-59
2023/01/30 00:55:44;;;;;;;13.50;8.30;;;;;;;4.47;100.00;102023.88;2097040;28;20193;-60
2023/01/30 00:56:44;;;;;;;12.40;8.07;;;;;;;4.43;100.00;102026.53;2093169;28;20737;-60
2023/01/30 00:57:45;;;;;;;10.10;7.73;;;;;;;4.44;100.00;102027.31;2090945;28;20617;-59
2023/01/30 00:58:45;;;;;;;11.23;7.90;;;;;;;4.48;100.00;102023.50;2096996;28;20246;-59
2023/01/30 00:59:46;;;;;;;11.97;7.77;;;;;;;4.43;100.00;102026.53;2096339;28;20182;-60
2023/01/30 01:00:46;;;;;;;12.30;8.50;;;;;;;4.45;100.00;102026.97;2089116;28;20182;-60
2023/01/30 01:01:47;;;;;;;11.60;7.97;;;;;;;4.27;100.00;101998.28;2088484;28;20185;-60
2023/01/30 01:02:47;;;;;;;10.47;7.47;;;;;;;4.16;100.00;101985.50;2088762;28;20199;-59
2023/01/30 01:03:47;;;;;;;10.87;7.50;;;;;;;4.42;100.00;102024.13;2088643;28;20186;-60
2023/01/30 01:04:48;;;;;;;11.40;8.40;;;;;;;4.42;100.00;102021.41;2088846;28;20188;-60
2023/01/30 01:05:48;;;;;;;11.27;7.83;;;;;;;3.84;100.00;101918.91;2088434;28;20178;-60
2023/01/30 01:06:49;;;;;;;10.83;7.97;;;;;;;4.50;100.00;102021.19;2088636;28;20212;-60
2023/01/30 01:07:49;;;;;;;11.20;8.17;;;;;;;4.32;100.00;101994.50;2088496;28;20201;-60
2023/01/30 01:08:49;;;;;;;11.80;7.80;;;;;;;4.47;100.00;102010.91;2089100;28;20182;-60
2023/01/30 01:09:50;;;;;;;11.20;7.50;;;;;;;4.42;100.00;102011.19;2087999;28;20673;-60
2023/01/30 01:10:50;;;;;;;10.57;7.83;;;;;;;4.48;100.00;102020.78;2088961;28;20225;-60
2023/01/30 01:11:51;;;;;;;10.23;7.33;;;;;;;4.51;100.00;102008.28;2088475;28;20193;-59
2023/01/30 01:12:51;;;;;;;11.13;7.33;;;;;;;4.52;100.00;102015.34;2088712;28;20222;-60
2023/01/30 01:13:53;;;;;;;12.03;8.43;;;;;;;4.37;100.00;102016.19;2090975;28;20575;-60
2023/01/30 01:14:53;;;;;;;12.25;8.20;;;;;;;4.34;100.00;102016.88;2097045;28;20628;-60
2023/01/30 01:15:54;;;;;;;9.53;7.40;;;;;;;4.31;100.00;101996.44;2096138;28;20578;-60
2023/01/30 01:16:54;;;;;;;11.47;7.50;;;;;;;4.15;100.00;101962.75;2089114;28;20206;-60
2023/01/30 01:17:55;;;;;;;10.87;7.83;;;;;;;4.39;100.00;102002.88;2088761;28;20277;-60
2023/01/30 01:18:55;;;;;;;11.77;8.23;;;;;;;4.41;100.00;102012.34;2088566;28;20635;-60
2023/01/30 01:19:56;;;;;;;12.00;7.87;;;;;;;4.40;100.00;101983.31;2093194;28;20349;-60
2023/01/30 01:20:56;;;;;;;10.57;7.67;;;;;;;4.46;100.00;102008.56;2097191;28;20228;-60
2023/01/30 01:21:56;;;;;;;10.73;7.07;;;;;;;4.36;100.00;102006.34;2096828;28;20705;-60
2023/01/30 01:22:57;;;;;;;11.60;7.47;;;;;;;4.05;100.00;101948.78;2095434;28;20185;-60
2023/01/30 01:23:59;;;;;;;13.47;7.90;;;;;;;4.49;100.00;101996.84;2088460;28;20183;-60
2023/01/30 01:24:59;;;;;;;12.45;8.32;;;;;;;4.48;100.00;102001.56;2089017;28;20175;-60
2023/01/30 01:26:03;;;;;;;11.50;7.90;;;;;;;4.50;100.00;102007.47;2088090;28;20262;-60
2023/01/30 01:27:03;;;;;;;11.55;7.85;;;;;;;4.49;100.00;102003.13;2095615;28;20195;-59
2023/01/30 01:28:04;;;;;;;11.30;8.07;;;;;;;4.38;100.00;101976.59;2090968;28;20247;-60
2023/01/30 01:29:04;;;;;;;10.97;7.93;;;;;;;4.54;100.00;101999.31;2093479;28;20251;-60
2023/01/30 01:30:06;;;;;;;11.70;8.13;;;;;;;4.57;100.00;101998.59;2096277;28;20641;-60
2023/01/30 01:31:08;;;;;;;10.18;7.20;;;;;;;3.91;100.00;101897.13;2094627;28;20235;-60
2023/01/30 01:32:08;;;;;;;10.95;7.55;;;;;;;4.46;100.00;101994.84;2090001;28;20210;-60
2023/01/30 01:33:09;;;;;;;13.80;8.17;;;;;;;4.29;100.00;102000.69;2096636;28;20170;-60
2023/01/30 01:34:10;;;;;;;11.07;7.23;;;;;;;4.19;100.00;101998.50;2088636;28;20170;-60
2023/01/30 01:35:10;;;;;;;9.40;6.90;;;;;;;4.25;100.00;101997.09;2088758;28;20186;-60
2023/01/30 01:36:11;;;;;;;10.20;7.50;;;;;;;4.26;100.00;101999.44;2088360;28;20222;-60
2023/01/30 01:37:11;;;;;;;11.20;8.17;;;;;;;4.27;100.00;101997.50;2088623;28;20236;-60
2023/01/30 01:38:12;;;;;;;10.80;7.57;;;;;;;4.17;100.00;101978.84;2088564;28;20650;-59
2023/01/30 01:39:13;;;;;;;11.37;7.87;;;;;;;4.39;100.00;101992.72;2088706;28;20658;-60
2023/01/30 01:41:37;;;;;;;10.40;7.53;;;;;;;4.29;100.00;101986.97;2088525;28;20194;-60
2023/01/30 01:42:38;;;;;;;10.07;7.23;;;;;;;4.27;100.00;101981.06;2088554;28;20177;-60
2023/01/30 01:43:58;;;;;;;9.90;7.53;;;;;;;4.24;100.00;101989.97;2088492;28;20187;-60
2023/01/30 01:45:07;;;;;;;11.77;7.88;;;;;;;4.28;100.00;101974.41;2088747;28;20186;-59
2023/01/30 01:46:31;;;;;;;12.82;8.10;;;;;;;4.34;100.00;101984.75;2088075;28;20207;-59
2023/01/30 01:47:33;;;;;;;11.73;7.68;;;;;;;3.74;100.00;101878.31;2088416;28;20669;-59
2023/01/30 01:48:40;;;;;;;11.13;7.15;;;;;;;4.40;100.00;101983.31;2095187;28;20671;-60
2023/01/30 01:49:40;;;;;;;9.68;7.03;;;;;;;4.42;100.00;101983.75;2096073;28;20204;-60
2023/01/30 01:50:59;;;;;;;10.77;7.37;;;;;;;4.32;100.00;101983.53;2096858;28;20683;-60
2023/01/30 01:52:05;;;;;;;10.50;7.30;;;;;;;3.57;100.00;101875.16;2096683;28;20176;-60
2023/01/30 01:53:07;;;;;;;10.13;7.35;;;;;;;4.33;100.00;101980.44;2093542;28;20201;-60
2023/01/30 01:54:13;;;;;;;9.85;6.63;;;;;;;4.33;100.00;101957.66;2088370;28;20192;-60
2023/01/30 01:55:14;;;;;;;9.13;6.80;;;;;;;4.46;100.00;101979.13;2088516;28;20167;-59
2023/01/30 01:56:18;;;;;;;8.98;6.47;;;;;;;4.52;100.00;101974.19;2088144;28;20710;-60
2023/01/30 01:57:32;;;;;;;9.13;6.90;;;;;;;4.08;100.00;101906.91;2088820;28;20726;-60
2023/01/30 01:58:44;;;;;;;12.57;6.90;;;;;;;4.48;100.00;101967.81;2096854;28;20169;-60
2023/01/30 01:59:50;;;;;;;9.95;6.75;;;;;;;4.38;100.00;101946.41;2097347;28;20159;-59
2023/01/30 02:00:51;;;;;;;11.13;7.32;;;;;;;4.47;100.00;101956.00;2097454;28;20211;-60
2023/01/30 02:01:57;;;;;;;11.98;6.88;;;;;;;4.60;100.00;101973.97;2089961;28;20224;-60
2023/01/30 02:03:00;;;;;;;9.70;6.72;;;;;;;4.63;100.00;101978.75;2090146;28;20621;-60
2023/01/30 02:04:04;;;;;;;9.32;6.40;;;;;;;4.67;100.00;101976.06;2089919;28;20189;-60
2023/01/30 02:05:05;;;;;;;9.65;6.50;;;;;;;4.62;100.00;101979.09;2097918;28;20196;-59
2023/01/30 02:06:07;;;;;;;10.50;6.97;;;;;;;4.67;100.00;101978.81;2091276;28;20707;-60
2023/01/30 02:07:08;;;;;;;10.32;6.63;;;;;;;4.54;100.00;101983.66;2086483;28;20440;-60
2023/01/30 02:08:28;;;;;;;8.63;6.23;;;;;;;4.45;100.00;101982.22;2084998;28;20650;-60
2023/01/30 02:09:29;;;;;;;10.15;6.40;;;;;;;4.48;100.00;101971.34;2095715;28;20181;-60
2023/01/30 02:10:53;;;;;;;9.50;5.87;;;;;;;4.01;100.00;101909.50;2097640;28;20703;-60
2023/01/30 02:11:58;;;;;;;8.65;5.10;;;;;;;3.82;100.00;101912.19;2098225;28;20283;-60
2023/01/30 02:12:58;;;;;;;9.10;6.00;;;;;;;4.16;100.00;101975.31;2098366;28;20180;-60
2023/01/30 02:14:00;;;;;;;9.37;5.73;;;;;;;4.11;100.00;101974.78;2101594;28;20180;-60
2023/01/30 02:15:03;;;;;;;8.45;5.70;;;;;;;4.14;100.00;101971.31;2093518;28;20688;-60
2023/01/30 02:16:05;;;;;;;9.27;5.88;;;;;;;4.14;100.00;101969.38;2085705;28;20198;-59
2023/01/30 02:17:06;;;;;;;9.93;5.78;;;;;;;4.12;100.00;101979.94;2089951;28;20257;-60
2023/01/30 02:18:06;;;;;;;8.83;5.80;;;;;;;3.88;100.00;101954.63;2089658;28;20181;-60
2023/01/30 02:19:23;;;;;;;8.53;5.60;;;;;;;4.07;100.00;101971.97;2090057;28;20246;-59
2023/01/30 02:20:26;;;;;;;8.85;6.13;;;;;;;4.06;100.00;101977.81;2089353;28;20214;-60
2023/01/30 02:21:57;;;;;;;9.30;6.00;;;;;;;4.08;100.00;101973.56;2089775;28;20668;-60
2023/01/30 02:23:37;;;;;;;8.32;6.20;;;;;;;4.12;100.00;101974.44;2089869;28;20188;-60
2023/01/30 02:24:50;;;;;;;8.88;5.82;;;;;;;4.12;100.00;101976.38;2084827;28;20670;-60
2023/01/30 02:26:11;;;;;;;8.90;5.75;;;;;;;4.09;100.00;101975.16;2097482;28;20211;-60
2023/01/30 02:27:30;;;;;;;9.57;6.13;;;;;;;3.99;100.00;101986.66;2089970;28;20172;-60
2023/01/30 02:28:36;;;;;;;7.50;5.03;;;;;;;3.68;100.00;101942.00;2098075;28;20247;-60
2023/01/30 02:30:01;;;;;;;9.30;6.35;;;;;;;3.86;100.00;101971.44;2088706;28;20175;-60
2023/01/30 02:31:01;;;;;;;7.65;5.40;;;;;;;3.80;100.00;101975.59;2088709;28;20195;-60
2023/01/30 02:32:33;;;;;;;10.57;5.47;;;;;;;3.72;100.00;101973.84;2091187;28;20175;-60
2023/01/30 02:34:12;;;;;;;8.77;5.75;;;;;;;3.77;100.00;101973.59;2092809;28;20190;-59
2023/01/30 02:35:34;;;;;;;8.55;5.70;;;;;;;3.77;100.00;101970.03;2080684;28;20189;-60
2023/01/30 02:37:00;;;;;;;10.98;5.80;;;;;;;3.84;100.00;101981.19;2089605;28;20633;-60
2023/01/30 02:38:18;;;;;;;9.68;5.68;;;;;;;3.82;100.00;101973.31;2089433;28;20542;-60
2023/01/30 02:39:55;;;;;;;9.90;6.75;;;;;;;3.69;100.00;101976.50;2089821;28;20190;-60
2023/01/30 02:41:23;;;;;;;9.88;6.22;;;;;;;3.69;100.00;101966.31;2090169;28;20640;-59
2023/01/30 02:42:36;;;;;;;10.05;6.13;;;;;;;3.82;100.00;101976.06;2095760;28;20171;-60
2023/01/30 02:43:37;;;;;;;9.65;5.70;;;;;;;3.88;100.00;101969.16;2089622;28;20280;-59
2023/01/30 02:44:52;;;;;;;7.97;5.57;;;;;;;3.91;100.00;101967.66;2091339;28;20206;-59
2023/01/30 02:45:55;;;;;;;8.57;5.60;;;;;;;3.99;100.00;101972.13;2095006;28;20711;-60
2023/01/30 02:47:10;;;;;;;8.73;6.30;;;;;;;4.00;100.00;101969.03;2091308;28;20187;-60
2023/01/30 02:48:16;;;;;;;10.98;5.93;;;;;;;4.04;100.00;101969.94;2099660;28;20241;-60
2023/01/30 02:49:31;;;;;;;9.27;6.18;;;;;;;3.74;100.00;101916.69;2102352;28;20179;-60
2023/01/30 02:50:46;;;;;;;9.00;5.82;;;;;;;4.12;100.00;101973.63;2091974;28;20202;-60
2023/01/30 02:51:49;;;;;;;9.10;6.07;;;;;;;4.08;100.00;101962.59;2097821;28;20195;-59
2023/01/30 02:52:51;;;;;;;9.65;6.65;;;;;;;4.08;100.00;101964.53;2097887;28;20191;-60
2023/01/30 02:53:53;;;;;;;9.98;6.57;;;;;;;4.11;100.00;101972.84;2095997;28;20190;-60
2023/01/30 02:54:53;;;;;;;8.63;5.78;;;;;;;4.07;100.00;101976.66;2089731;28;20178;-60
2023/01/30 02:55:54;;;;;;;9.77;6.40;;;;;;;4.01;100.00;101976.13;2089353;28;20674;-60
2023/01/30 02:56:57;;;;;;;9.80;6.60;;;;;;;4.04;100.00;101975.41;2089927;28;20334;-59
2023/01/30 02:57:59;;;;;;;9.32;6.53;;;;;;;3.88;100.00;101963.66;2089420;28;20227;-60
2023/01/30 02:59:05;;;;;;;8.98;6.65;;;;;;;4.05;100.00;101979.75;2089658;28;20195;-60
2023/01/30 03:00:07;;;;;;;9.20;6.93;;;;;;;3.64;100.00;101910.97;2089072;28;20199;-60
2023/01/30 03:01:29;;;;;;;10.15;6.85;;;;;;;4.02;100.00;101976.91;2089766;28;20282;-60
2023/01/30 03:03:05;;;;;;;9.30;5.85;;;;;;;4.06;100.00;101970.34;2089574;28;20286;-60
2023/01/30 03:04:49;;;;;;;10.48;6.70;;;;;;;4.15;100.00;101972.94;2090118;28;20610;-59
2023/01/30 03:06:13;;;;;;;9.60;6.28;;;;;;;4.23;100.00;101969.19;2071580;28;20200;-60
2023/01/30 03:07:37;;;;;;;9.60;6.28;;;;;;;4.26;100.00;101974.75;2097331;28;20334;-59
2023/01/30 03:09:05;;;;;;;9.40;6.88;;;;;;;3.88;100.00;101921.72;2089721;28;20247;-60
2023/01/30 03:10:23;;;;;;;9.73;6.72;;;;;;;4.33;100.00;101965.91;2093939;28;20782;-60
2023/01/30 03:11:29;;;;;;;10.85;6.65;;;;;;;4.33;100.00;101952.97;2088836;28;20277;-60
2023/01/30 03:12:35;;;;;;;8.32;5.65;;;;;;;4.32;100.00;101958.81;2089375;28;20191;-60
2023/01/30 03:13:55;;;;;;;9.27;6.50;;;;;;;4.27;100.00;101959.09;2092607;28;20241;-60
2023/01/30 03:15:30;;;;;;;8.52;6.10;;;;;;;4.30;100.00;101961.09;2096833;28;20202;-60
2023/01/30 03:16:39;;;;;;;9.32;6.20;;;;;;;4.32;100.00;101950.59;2086988;28;20195;-60
2023/01/30 03:17:43;;;;;;;9.90;6.88;;;;;;;4.25;100.00;101967.69;2089516;28;20187;-60
2023/01/30 03:18:45;;;;;;;8.95;6.53;;;;;;;3.97;100.00;101914.91;2089475;28;20242;-59
2023/01/30 03:19:45;;;;;;;8.95;7.00;;;;;;;4.21;100.00;101949.56;2088693;28;20181;-60
2023/01/30 03:20:46;;;;;;;9.63;6.63;;;;;;;3.78;100.00;101884.69;2094953;28;20316;-60
2023/01/30 03:21:46;;;;;;;9.60;6.87;;;;;;;3.85;100.00;101886.81;2093196;28;20193;-60
2023/01/30 03:22:47;;;;;;;9.37;6.90;;;;;;;4.18;100.00;101953.00;2092525;28;20202;-59
2023/01/30 03:23:48;;;;;;;10.50;7.10;;;;;;;4.24;100.00;101946.88;2095434;28;20259;-60
2023/01/30 03:24:51;;;;;;;11.27;6.77;;;;;;;4.25;100.00;101945.72;2090350;28;20185;-60
2023/01/30 03:25:52;;;;;;;11.00;7.80;;;;;;;4.28;100.00;101946.97;2096873;28;20191;-59
2023/01/30 03:27:08;;;;;;;9.23;6.60;;;;;;;4.25;100.00;101942.22;2094251;28;20186;-60
2023/01/30 03:28:11;;;;;;;9.65;6.80;;;;;;;4.31;100.00;101943.50;2096743;28;20190;-60
2023/01/30 03:29:11;;;;;;;10.07;7.20;;;;;;;4.27;100.00;101939.88;2097448;28;20238;-60
2023/01/30 03:30:12;;;;;;;9.93;7.10;;;;;;;4.11;100.00;101945.41;2097162;28;20205;-59
2023/01/30 03:31:13;;;;;;;9.93;7.20;;;;;;;4.16;100.00;101960.81;2097696;28;20240;-60
2023/01/30 03:32:13;;;;;;;9.30;6.87;;;;;;;4.26;100.00;101938.31;2097614;28;20188;-60
2023/01/30 03:33:13;;;;;;;10.90;6.93;;;;;;;4.24;100.00;101941.41;2092521;28;20193;-59
2023/01/30 03:34:14;;;;;;;10.13;7.17;;;;;;;3.91;100.00;101888.88;2089066;28;20656;-60
2023/01/30 03:35:16;;;;;;;11.67;8.00;;;;;;;4.25;100.00;101931.22;2089217;28;20196;-60
2023/01/30 03:36:16;;;;;;;11.15;7.10;;;;;;;4.28;100.00;101947.78;2088881;28;20194;-60
2023/01/30 03:37:17;;;;;;;10.17;7.17;;;;;;;4.12;100.00;101924.25;2089222;28;20181;-60
2023/01/30 03:38:18;;;;;;;10.27;7.10;;;;;;;4.12;100.00;101955.25;2089388;28;20569;-60
2023/01/30 03:39:19;;;;;;;12.25;7.82;;;;;;;4.11;100.00;101936.38;2089093;28;20298;-60
2023/01/30 03:40:19;;;;;;;9.63;7.10;;;;;;;4.02;100.00;101947.56;2088827;28;20192;-60
2023/01/30 03:41:20;;;;;;;10.23;7.57;;;;;;;4.02;100.00;101946.75;2089095;28;20192;-60
2023/01/30 03:42:20;;;;;;;9.93;7.13;;;;;;;4.04;100.00;101945.25;2089285;28;20186;-60
2023/01/30 03:43:20;;;;;;;9.63;7.30;;;;;;;4.10;100.00;101945.78;2088932;28;20188;-59
2023/01/30 03:44:21;;;;;;;10.47;7.73;;;;;;;3.88;100.00;101899.78;2089293;28;20182;-59
2023/01/30 03:45:21;;;;;;;9.63;7.23;;;;;;;4.20;100.00;101935.03;2089196;28;20180;-60
2023/01/30 03:46:22;;;;;;;10.80;7.40;;;;;;;4.19;100.00;101936.19;2089022;28;20191;-60
2023/01/30 03:47:22;;;;;;;10.37;7.37;;;;;;;4.11;100.00;101914.44;2089287;28;20195;-60
2023/01/30 03:48:23;;;;;;;10.33;7.30;;;;;;;4.24;100.00;101938.66;2097003;28;20236;-60
2023/01/30 03:49:23;;;;;;;10.20;7.30;;;;;;;4.30;100.00;101942.69;2100038;28;20191;-60
2023/01/30 03:50:24;;;;;;;11.07;7.93;;;;;;;3.57;100.00;101828.56;2096844;28;20222;-60
2023/01/30 03:51:24;;;;;;;11.63;7.83;;;;;;;4.18;100.00;101937.34;2097385;28;20202;-59
2023/01/30 03:52:25;;;;;;;10.70;7.97;;;;;;;4.26;100.00;101941.81;2095422;28;20202;-60
2023/01/30 03:53:25;;;;;;;10.27;7.50;;;;;;;4.22;100.00;101926.44;2089988;28;20286;-60
2023/01/30 03:54:25;;;;;;;10.57;7.70;;;;;;;4.31;100.00;101935.28;2097748;28;20185;-59
2023/01/30 03:55:26;;;;;;;10.63;7.57;;;;;;;4.05;100.00;101904.91;2097295;28;20201;-59
2023/01/30 03:56:26;;;;;;;10.80;7.53;;;;;;;4.30;100.00;101941.91;2097111;28;20191;-59
2023/01/30 03:57:27;;;;;;;9.67;7.10;;;;;;;4.08;100.00;101902.22;2097329;28;20198;-59
2023/01/30 03:58:27;;;;;;;11.83;8.10;;;;;;;4.19;100.00;101938.13;2097331;28;20194;-60
2023/01/30 03:59:27;;;;;;;11.53;8.30;;;;;;;3.70;100.00;101860.19;2097344;28;20222;-60
2023/01/30 04:00:28;;;;;;;11.37;7.93;;;;;;;4.24;100.00;101941.41;2096797;28;20176;-59
2023/01/30 04:01:28;;;;;;;10.40;7.43;;;;;;;4.23;100.00;101942.56;2097201;28;21041;-60
2023/01/30 04:02:29;;;;;;;12.53;7.57;;;;;;;4.26;100.00;101939.09;2097409;28;20263;-60
2023/01/30 04:03:29;;;;;;;10.33;7.37;;;;;;;4.26;100.00;101935.56;2097294;28;20195;-60
2023/01/30 04:04:30;;;;;;;11.67;7.70;;;;;;;4.21;100.00;101939.34;2097240;28;20200;-60
2023/01/30 04:05:30;;;;;;;10.37;7.43;;;;;;;4.14;100.00;101925.50;2097349;28;20283;-60
2023/01/30 04:06:31;;;;;;;12.03;7.53;;;;;;;4.27;100.00;101937.91;2096947;28;20270;-60
2023/01/30 04:07:31;;;;;;;11.10;7.07;;;;;;;4.18;100.00;101920.88;2094149;28;20203;-60
2023/01/30 04:08:32;;;;;;;10.07;7.40;;;;;;;4.18;100.00;101937.34;2089203;28;20176;-60
2023/01/30 04:09:32;;;;;;;10.67;7.53;;;;;;;4.18;100.00;101942.03;2088849;28;20195;-60
2023/01/30 04:10:33;;;;;;;10.43;7.40;;;;;;;4.17;100.00;101935.75;2079801;28;20712;-60
2023/01/30 04:11:33;;;;;;;10.83;7.47;;;;;;;4.16;100.00;101934.16;2071851;28;20212;-60
2023/01/30 04:12:34;;;;;;;10.60;7.27;;;;;;;4.12;100.00;101927.00;2086975;28;20201;-60
2023/01/30 04:13:34;;;;;;;10.83;7.77;;;;;;;4.10;100.00;101932.06;2091815;28;20188;-60
2023/01/30 04:14:34;;;;;;;11.53;7.60;;;;;;;4.06;100.00;101933.91;2101457;28;20683;-60
2023/01/30 04:15:35;;;;;;;10.43;7.70;;;;;;;4.13;100.00;101926.66;2094140;28;20708;-59
2023/01/30 04:16:35;;;;;;;10.50;7.47;;;;;;;4.11;100.00;101928.94;2090529;28;20210;-60
2023/01/30 04:17:36;;;;;;;11.77;8.13;;;;;;;4.11;100.00;101926.19;2096926;28;20226;-60
2023/01/30 04:18:36;;;;;;;9.97;7.37;;;;;;;4.10;100.00;101924.59;2097340;28;20187;-60
2023/01/30 04:19:37;;;;;;;10.67;7.37;;;;;;;4.16;100.00;101914.16;2096665;28;20563;-60
2023/01/30 04:20:37;;;;;;;10.87;7.70;;;;;;;4.21;100.00;101933.09;2097298;28;20198;-59
2023/01/30 04:21:38;;;;;;;11.03;7.50;;;;;;;4.12;100.00;101925.06;2097090;28;20281;-59
2023/01/30 04:22:38;;;;;;;11.10;8.23;;;;;;;4.19;100.00;101930.69;2096931;28;20563;-60
2023/01/30 04:23:39;;;;;;;10.50;7.83;;;;;;;4.17;100.00;101932.22;2097011;28;20237;-60
2023/01/30 04:24:39;;;;;;;11.60;7.97;;;;;;;4.12;100.00;101919.56;2097228;28;20171;-60
2023/01/30 04:25:40;;;;;;;13.80;8.80;;;;;;;4.15;100.00;101927.06;2096901;28;20613;-60
2023/01/30 04:26:40;;;;;;;12.30;8.63;;;;;;;4.09;100.00;101912.06;2097021;28;20172;-60
2023/01/30 04:27:41;;;;;;;13.10;9.10;;;;;;;4.06;100.00;101911.97;2097097;28;20218;-59
2023/01/30 04:28:43;;;;;;;12.40;8.97;;;;;;;3.87;100.00;101903.69;2097388;28;20195;-60
2023/01/30 04:29:43;;;;;;;14.95;9.73;;;;;;;4.10;100.00;101915.59;2096446;28;20233;-59
2023/01/30 04:30:44;;;;;;;13.33;9.37;;;;;;;4.12;100.00;101916.03;2092617;28;20240;-60
2023/01/30 04:31:44;;;;;;;13.27;9.37;;;;;;;4.16;100.00;101928.66;2091965;28;20215;-60
2023/01/30 04:32:45;;;;;;;12.00;9.20;;;;;;;4.16;100.00;101916.91;2097255;28;20175;-59
2023/01/30 04:33:45;;;;;;;14.47;9.50;;;;;;;3.91;100.00;101869.69;2097109;28;20217;-60
2023/01/30 04:34:45;;;;;;;14.93;10.00;;;;;;;4.10;100.00;101902.66;2097461;28;20206;-60
2023/01/30 04:35:53;;;;;;;15.07;9.60;;;;;;;4.16;100.00;101919.66;2096981;28;20195;-59
2023/01/30 04:36:53;;;;;;;12.60;9.60;;;;;;;4.13;100.00;101910.19;2097477;28;20198;-60
2023/01/30 04:37:53;;;;;;;14.33;9.40;;;;;;;4.17;100.00;101915.75;2090109;28;20271;-59
2023/01/30 04:38:56;;;;;;;12.67;9.40;;;;;;;3.91;100.00;101891.63;2094516;28;20190;-60
2023/01/30 04:39:56;;;;;;;14.13;10.20;;;;;;;3.99;100.00;101909.03;2091850;28;20194;-59
2023/01/30 04:40:58;;;;;;;16.37;10.10;;;;;;;4.02;100.00;101919.31;2088989;28;20191;-60
2023/01/30 04:41:58;;;;;;;13.43;10.02;;;;;;;4.09;100.00;101908.50;2088752;28;20186;-59
2023/01/30 04:42:58;;;;;;;13.17;9.83;;;;;;;4.12;100.00;101907.78;2090069;28;20178;-59
2023/01/30 04:43:59;;;;;;;13.87;9.60;;;;;;;4.07;100.00;101919.84;2097137;28;20168;-60
2023/01/30 04:44:59;;;;;;;14.03;10.13;;;;;;;4.04;100.00;101911.53;2089278;28;20658;-60
2023/01/30 04:46:00;;;;;;;15.37;9.90;;;;;;;4.09;100.00;101913.97;2088260;28;20184;-60
2023/01/30 04:47:00;;;;;;;14.27;10.07;;;;;;;4.04;100.00;101920.56;2088893;28;20279;-60
2023/01/30 04:48:00;;;;;;;14.50;10.47;;;;;;;4.05;100.00;101913.91;2094360;28;20187;-60
2023/01/30 04:49:01;;;;;;;13.27;9.60;;;;;;;4.03;100.00;101912.69;2101947;28;20199;-59
2023/01/30 04:50:01;;;;;;;14.20;10.23;;;;;;;4.08;100.00;101921.44;2096352;28;20856;-60
2023/01/30 04:51:02;;;;;;;13.57;10.10;;;;;;;4.09;100.00;101914.78;2097452;28;20629;-60
2023/01/30 04:52:03;;;;;;;14.00;9.67;;;;;;;4.19;100.00;101927.97;2096979;28;20679;-60
2023/01/30 04:53:03;;;;;;;16.93;9.90;;;;;;;4.11;100.00;101909.72;2097172;28;20567;-60
2023/01/30 04:54:05;;;;;;;12.43;9.30;;;;;;;4.11;100.00;101915.22;2097065;28;20194;-59
2023/01/30 04:55:06;;;;;;;15.48;9.43;;;;;;;4.01;100.00;101906.75;2090921;28;20352;-60
2023/01/30 04:56:06;;;;;;;13.73;9.00;;;;;;;3.80;100.00;101909.78;2088291;28;20264;-60
2023/01/30 04:57:06;;;;;;;14.53;9.30;;;;;;;3.83;100.00;101909.09;2088902;28;20191;-60
2023/01/30 04:58:07;;;;;;;11.93;9.17;;;;;;;3.89;100.00;101909.59;2088677;28;20202;-60
2023/01/30 04:59:07;;;;;;;13.43;9.33;;;;;;;3.89;100.00;101913.16;2090509;28;20168;-60
2023/01/30 05:00:08;;;;;;;13.17;9.17;;;;;;;3.78;100.00;101914.84;2096154;28;20257;-59
2023/01/30 05:01:20;;;;;;;13.52;8.82;;;;;;;3.62;100.00;101916.81;2095518;28;20187;-62
2023/01/30 05:02:21;;;;;;;11.77;7.95;;;;;;;3.62;100.00;101916.81;2094634;28;20200;-61